createdAt,value
2023-02-15T00:02:57.511Z,75.33
2023-02-15T00:07:59.291Z,75.05
2023-02-15T00:13:01.540Z,75.07
2023-02-15T00:18:03.475Z,75.07
2023-02-15T00:23:05.381Z,75.01
2023-02-15T00:28:07.301Z,74.97
2023-02-15T00:33:10.325Z,74.96
2023-02-15T00:38:13.725Z,74.93
2023-02-15T00:43:16.646Z,74.97
2023-02-15T00:48:19.471Z,74.95
2023-02-15T00:53:22.237Z,74.96
2023-02-15T00:58:24.487Z,74.75
2023-02-15T01:03:26.398Z,75.03
2023-02-15T01:08:28.735Z,74.81
2023-02-15T01:13:30.796Z,74.92
2023-02-15T01:18:33.545Z,74.75
2023-02-15T01:23:35.494Z,74.91
2023-02-15T01:28:39.596Z,74.87
2023-02-15T01:33:41.571Z,74.75
2023-02-15T01:38:45.039Z,74.59
2023-02-15T01:43:50.279Z,74.73
2023-02-15T01:49:02.534Z,74.68
2023-02-15T01:54:22.656Z,74.60
2023-02-15T01:59:26.312Z,74.67
2023-02-15T02:04:41.281Z,74.89
2023-02-15T02:09:43.826Z,75.13
2023-02-15T02:14:48.000Z,74.99
2023-02-15T02:20:21.877Z,74.97
2023-02-15T02:25:52.211Z,74.95
2023-02-15T02:31:38.442Z,74.99
2023-02-15T02:36:59.135Z,75.08
2023-02-15T02:42:17.461Z,74.89
2023-02-15T02:47:31.042Z,74.86
2023-02-15T02:52:49.637Z,74.88
2023-02-15T02:58:15.635Z,74.82
2023-02-15T03:03:24.884Z,74.81
2023-02-15T03:08:37.142Z,74.72
2023-02-15T03:13:39.827Z,74.80
2023-02-15T03:18:59.113Z,74.71
2023-02-15T03:24:10.695Z,74.64
2023-02-15T03:29:14.354Z,74.72
2023-02-15T03:34:18.061Z,74.63
2023-02-15T03:39:27.975Z,74.65
2023-02-15T03:44:37.101Z,74.72
2023-02-15T03:49:56.661Z,74.78
2023-02-15T03:54:58.777Z,74.81
2023-02-15T04:00:20.766Z,74.69
2023-02-15T04:05:23.187Z,74.79
2023-02-15T04:10:43.462Z,74.71
2023-02-15T04:16:03.952Z,74.88
2023-02-15T04:21:24.593Z,75.00
2023-02-15T04:26:26.346Z,74.63
2023-02-15T04:31:28.206Z,74.72
2023-02-15T04:36:30.697Z,74.73
2023-02-15T04:41:33.068Z,74.88
2023-02-15T04:46:34.988Z,75.05
2023-02-15T04:51:37.207Z,75.02
2023-02-15T04:56:40.027Z,74.91
2023-02-15T05:01:42.443Z,75.25
2023-02-15T05:06:44.389Z,75.33
2023-02-15T05:11:46.565Z,75.40
2023-02-15T05:21:51.145Z,75.38
2023-02-15T05:27:14.368Z,75.50
2023-02-15T05:32:16.432Z,75.40
2023-02-15T05:37:18.302Z,75.53
2023-02-15T05:42:20.089Z,75.54
2023-02-15T05:47:21.930Z,75.61
2023-02-15T05:52:23.870Z,75.59
2023-02-15T05:57:32.271Z,75.69
2023-02-15T06:02:37.765Z,75.70
2023-02-15T06:07:39.656Z,75.62
2023-02-15T06:12:41.640Z,75.52
2023-02-15T06:17:44.372Z,75.36
2023-02-15T06:22:46.249Z,75.31
2023-02-15T06:27:48.080Z,75.36
2023-02-15T06:32:49.864Z,75.55
2023-02-15T06:37:51.701Z,75.68
2023-02-15T06:42:53.659Z,75.56
2023-02-15T06:47:55.667Z,75.76
2023-02-15T06:52:58.944Z,75.66
2023-02-15T06:58:00.824Z,75.69
2023-02-15T07:03:03.629Z,75.83
2023-02-15T07:08:05.619Z,76.01
2023-02-15T07:13:07.448Z,76.06
2023-02-15T07:18:10.602Z,76.27
2023-02-15T07:23:12.718Z,76.46
2023-02-15T07:28:14.978Z,76.20
2023-02-15T07:33:25.481Z,76.67
2023-02-15T07:38:28.670Z,76.75
2023-02-15T07:43:31.396Z,76.94
2023-02-15T07:48:34.532Z,77.02
2023-02-15T07:53:37.118Z,77.22
2023-02-15T07:58:52.086Z,77.25
2023-02-15T08:03:56.998Z,77.54
2023-02-15T08:08:59.882Z,77.74
2023-02-15T08:14:03.488Z,78.01
2023-02-15T08:19:18.656Z,78.16
2023-02-15T08:24:23.016Z,78.50
2023-02-15T08:29:27.769Z,78.74
2023-02-15T08:34:31.826Z,78.83
2023-02-15T08:39:33.599Z,79.05
2023-02-15T08:44:35.360Z,79.33
2023-02-15T08:49:37.241Z,79.32
2023-02-15T08:54:39.222Z,79.34
2023-02-15T08:59:41.152Z,79.71
2023-02-15T09:04:43.181Z,79.77
2023-02-15T09:09:46.515Z,79.84
2023-02-15T09:14:48.281Z,80.05
2023-02-15T09:19:50.666Z,80.12
2023-02-15T09:24:52.576Z,80.34
2023-02-15T09:29:54.827Z,80.15
2023-02-15T09:34:56.845Z,80.03
2023-02-15T09:39:58.892Z,80.02
2023-02-15T09:45:31.340Z,80.16
2023-02-15T09:50:42.714Z,80.12
2023-02-15T09:55:52.466Z,80.00
2023-02-15T10:01:27.058Z,80.13
2023-02-15T10:06:45.699Z,80.12
2023-02-15T10:12:10.324Z,79.95
2023-02-15T10:17:25.087Z,79.94
2023-02-15T10:22:56.304Z,79.97
2023-02-15T10:28:19.534Z,79.63
2023-02-15T10:33:27.331Z,79.64
2023-02-15T10:38:57.764Z,79.58
2023-02-15T10:44:24.139Z,79.36
2023-02-15T10:49:54.092Z,79.07
2023-02-15T10:55:13.877Z,78.92
2023-02-15T11:00:40.327Z,78.79
2023-02-15T11:06:04.035Z,78.38
2023-02-15T11:11:10.621Z,78.43
2023-02-15T11:16:29.159Z,78.02
2023-02-15T11:21:40.067Z,77.91
2023-02-15T11:27:20.317Z,78.14
2023-02-15T11:32:27.646Z,77.99
2023-02-15T11:37:44.117Z,77.76
2023-02-15T11:42:50.990Z,77.70
2023-02-15T11:47:53.809Z,77.43
2023-02-15T11:53:03.761Z,77.54
2023-02-15T11:58:24.784Z,77.30
2023-02-15T12:03:48.012Z,77.22
2023-02-15T12:08:56.947Z,76.89
2023-02-15T12:14:03.114Z,76.86
2023-02-15T12:19:04.968Z,76.65
2023-02-15T12:24:46.473Z,76.22
2023-02-15T12:29:59.874Z,76.23
2023-02-15T12:35:08.303Z,76.06
2023-02-15T12:40:31.255Z,75.60
2023-02-15T12:45:35.657Z,75.94
2023-02-15T12:50:37.690Z,75.83
2023-02-15T12:55:45.434Z,75.66
2023-02-15T13:00:48.276Z,75.75
2023-02-15T13:05:54.719Z,75.56
2023-02-15T13:11:08.376Z,75.40
2023-02-15T13:16:14.451Z,75.30
2023-02-15T13:21:27.440Z,75.22
2023-02-15T13:26:32.977Z,75.12
2023-02-15T13:31:35.376Z,75.22
2023-02-15T13:36:49.370Z,75.34
2023-02-15T13:42:17.630Z,75.36
2023-02-15T13:47:19.596Z,75.26
2023-02-15T13:52:24.781Z,75.36
2023-02-15T13:57:53.733Z,75.30
2023-02-15T14:03:10.805Z,75.28
2023-02-15T14:08:52.846Z,75.16
2023-02-15T14:14:13.357Z,75.16
2023-02-15T14:19:42.377Z,74.90
2023-02-15T14:25:13.622Z,74.96
2023-02-15T14:30:27.230Z,74.83
2023-02-15T14:35:31.404Z,75.04
2023-02-15T14:41:08.737Z,75.00
2023-02-15T14:46:33.239Z,74.98
2023-02-15T14:51:44.125Z,75.01
2023-02-15T14:56:47.471Z,74.81
2023-02-15T15:02:10.749Z,75.06
2023-02-15T15:07:51.219Z,75.01
2023-02-15T15:12:55.715Z,74.84
2023-02-15T15:18:00.696Z,74.98
2023-02-15T15:23:18.961Z,74.96
2023-02-15T15:28:36.060Z,74.95
2023-02-15T15:34:07.000Z,75.25
2023-02-15T15:39:20.607Z,75.05
2023-02-15T15:44:49.968Z,74.97
2023-02-15T15:49:57.263Z,75.17
2023-02-15T15:55:15.886Z,75.04
2023-02-15T16:00:36.537Z,74.96
2023-02-15T16:05:39.568Z,75.04
2023-02-15T16:10:42.008Z,75.11
2023-02-15T16:15:46.389Z,75.00
2023-02-15T16:21:02.480Z,75.01
2023-02-15T16:26:26.289Z,75.15
2023-02-15T16:31:28.279Z,74.69
2023-02-15T16:36:30.207Z,74.72
2023-02-15T16:41:32.308Z,74.80
2023-02-15T16:46:55.085Z,74.62
2023-02-15T16:52:08.183Z,74.81
2023-02-15T16:57:23.025Z,74.82
2023-02-15T17:02:53.152Z,74.55
2023-02-15T17:08:05.427Z,74.42
2023-02-15T17:13:18.342Z,74.55
2023-02-15T17:18:23.668Z,74.57
2023-02-15T17:23:47.665Z,74.71
2023-02-15T17:28:57.114Z,74.60
2023-02-15T17:34:00.347Z,74.66
2023-02-15T17:39:07.668Z,74.43
2023-02-15T17:44:14.869Z,74.63
2023-02-15T17:49:26.011Z,74.71
2023-02-15T17:54:46.635Z,74.64
2023-02-15T18:00:07.240Z,74.40
2023-02-15T18:05:33.047Z,74.30
2023-02-15T18:10:53.274Z,73.98
2023-02-15T18:15:56.680Z,74.25
2023-02-15T18:20:58.510Z,74.03
2023-02-15T18:26:00.320Z,74.05
2023-02-15T18:31:02.735Z,74.19
2023-02-15T18:36:07.553Z,73.82
2023-02-15T18:41:16.628Z,74.13
2023-02-15T18:46:18.618Z,74.12
2023-02-15T18:51:22.983Z,74.02
2023-02-15T18:56:24.869Z,73.73
2023-02-15T19:01:28.066Z,73.70
2023-02-15T19:06:29.985Z,73.72
2023-02-15T19:11:31.932Z,73.99
2023-02-15T19:16:35.983Z,73.74
2023-02-15T19:21:39.729Z,73.83
2023-02-15T19:26:45.532Z,73.58
2023-02-15T19:31:48.007Z,73.95
2023-02-15T19:36:53.588Z,73.83
2023-02-15T19:41:55.692Z,73.97
2023-02-15T19:46:57.683Z,74.01
2023-02-15T19:52:00.156Z,73.78
2023-02-15T19:57:02.293Z,74.02
2023-02-15T20:02:05.096Z,73.95
2023-02-15T20:07:19.689Z,74.06
2023-02-15T20:12:24.840Z,73.77
2023-02-15T20:17:26.731Z,73.62
2023-02-15T20:22:29.215Z,73.62
2023-02-15T20:27:31.262Z,73.73
2023-02-15T20:32:33.237Z,73.41
2023-02-15T20:37:35.226Z,73.59
2023-02-15T20:42:37.069Z,73.59
2023-02-15T20:47:39.080Z,73.60
2023-02-15T20:52:41.155Z,73.63
2023-02-15T20:57:43.245Z,73.62
2023-02-15T21:02:50.346Z,73.46
2023-02-15T21:07:53.582Z,73.58
2023-02-15T21:12:58.057Z,73.52
2023-02-15T21:18:06.112Z,73.53
2023-02-15T21:23:13.832Z,73.65
2023-02-15T21:28:21.825Z,73.60
2023-02-15T21:33:24.664Z,73.66
2023-02-15T21:38:31.125Z,73.54
2023-02-15T21:43:51.354Z,73.64
2023-02-15T21:48:53.190Z,73.61
2023-02-15T21:53:55.071Z,73.57
2023-02-15T21:58:56.821Z,73.70
2023-02-15T22:03:59.328Z,73.63
2023-02-15T22:09:01.178Z,73.68
2023-02-15T22:14:04.035Z,73.72
2023-02-15T22:19:05.914Z,73.80
2023-02-15T22:24:07.837Z,73.93
2023-02-15T22:29:27.830Z,73.78
2023-02-15T22:34:32.656Z,73.75
2023-02-15T22:39:34.467Z,73.71
2023-02-15T22:44:36.605Z,73.64
2023-02-15T22:49:38.362Z,73.88
2023-02-15T22:54:40.277Z,73.64
2023-02-15T22:59:42.117Z,73.75
2023-02-15T23:04:43.979Z,73.65
2023-02-15T23:09:46.376Z,73.85
2023-02-15T23:14:48.390Z,73.71
2023-02-15T23:19:50.507Z,73.87
2023-02-15T23:24:53.208Z,73.70
2023-02-15T23:29:55.065Z,73.72
2023-02-15T23:34:57.013Z,73.88
2023-02-15T23:40:17.508Z,73.86
2023-02-15T23:45:23.501Z,73.92
2023-02-15T23:50:28.196Z,73.75
2023-02-15T23:55:38.834Z,73.83
